createdAt,value
2019-04-19T00:02:39.920Z,63.8
2019-04-19T00:07:31.824Z,63.7
2019-04-19T00:12:48.595Z,63.7
2019-04-19T00:17:34.207Z,63.6
2019-04-19T00:23:01.692Z,63.6
2019-04-19T00:27:43.300Z,63.6
2019-04-19T00:32:55.848Z,63.6
2019-04-19T00:37:29.382Z,63.6
2019-04-19T00:43:00.451Z,63.4
2019-04-19T00:48:01.607Z,63.4
2019-04-19T00:53:07.270Z,63.2
2019-04-19T00:57:47.081Z,63.3
2019-04-19T01:02:28.631Z,63.1
2019-04-19T01:07:37.354Z,63.1
2019-04-19T01:13:01.610Z,63.1
2019-04-19T01:18:04.205Z,62.9
2019-04-19T01:22:33.129Z,62.8
2019-04-19T01:27:35.749Z,62.9
2019-04-19T01:32:28.479Z,62.9
2019-04-19T01:37:31.845Z,62.7
2019-04-19T01:43:01.502Z,62.7
2019-04-19T01:47:58.642Z,62.8
2019-04-19T01:53:20.407Z,62.8
2019-04-19T01:57:30.635Z,62.8
2019-04-19T02:02:30.936Z,62.8
2019-04-19T02:07:34.429Z,62.7
2019-04-19T02:12:46.608Z,62.6
2019-04-19T02:17:37.976Z,62.5
2019-04-19T02:22:36.244Z,62.4
2019-04-19T02:27:42.199Z,62.4
2019-04-19T02:33:06.787Z,62.3
2019-04-19T02:43:23.631Z,62.4
2019-04-19T02:48:26.026Z,62.4
2019-04-19T02:58:16.402Z,62.4
2019-04-19T03:07:30.136Z,62.2
2019-04-19T03:13:03.034Z,62.2
2019-04-19T03:18:13.245Z,62.2
2019-04-19T03:22:58.199Z,62.2
2019-04-19T03:27:59.159Z,62.2
2019-04-19T03:33:58.392Z,62.3
2019-04-19T03:38:05.981Z,62.2
2019-04-19T03:53:05.618Z,62.0
2019-04-19T03:57:51.962Z,61.9
2019-04-19T04:02:39.753Z,61.9
2019-04-19T04:07:32.640Z,61.9
2019-04-19T04:12:49.209Z,61.8
2019-04-19T04:17:29.502Z,61.8
2019-04-19T04:22:38.924Z,61.8
2019-04-19T04:27:53.015Z,61.6
2019-04-19T04:33:00.248Z,61.6
2019-04-19T04:37:54.267Z,61.5
2019-04-19T04:42:45.810Z,61.5
2019-04-19T04:47:59.734Z,61.4
2019-04-19T04:52:37.657Z,61.3
2019-04-19T04:57:45.369Z,61.0
2019-04-19T05:02:59.963Z,61.0
2019-04-19T05:08:13.797Z,60.5
2019-04-19T05:13:21.314Z,60.4
2019-04-19T05:18:21.085Z,60.4
2019-04-19T05:22:57.727Z,60.2
2019-04-19T05:28:12.236Z,60.2
2019-04-19T05:32:34.736Z,60.3
2019-04-19T05:37:58.242Z,60.2
2019-04-19T05:43:02.080Z,60.1
2019-04-19T05:47:54.340Z,60.1
2019-04-19T05:52:58.349Z,60.1
2019-04-19T05:57:56.433Z,60.0
2019-04-19T06:02:52.157Z,59.9
2019-04-19T06:07:59.217Z,60.0
2019-04-19T06:12:35.822Z,60.1
2019-04-19T06:18:00.216Z,60.1
2019-04-19T06:23:02.364Z,60.0
2019-04-19T06:28:08.760Z,60.2
2019-04-19T06:33:16.815Z,60.2
2019-04-19T06:37:34.188Z,60.2
2019-04-19T06:42:46.056Z,60.4
2019-04-19T06:47:46.389Z,60.6
2019-04-19T06:52:35.996Z,60.6
2019-04-19T06:57:42.650Z,60.6
2019-04-19T07:02:30.369Z,60.8
2019-04-19T07:08:29.532Z,60.9
2019-04-19T07:13:04.015Z,61.2
2019-04-19T07:17:53.301Z,61.4
2019-04-19T07:23:02.190Z,61.4
2019-04-19T07:27:55.126Z,61.7
2019-04-19T07:32:41.522Z,61.7
2019-04-19T07:47:47.106Z,62.5
2019-04-19T07:52:46.907Z,62.8
2019-04-19T08:03:47.443Z,62.9
2019-04-19T08:13:39.593Z,63.3
2019-04-19T08:27:49.065Z,63.7
2019-04-19T08:32:30.203Z,64.2
2019-04-19T08:37:40.993Z,64.1
2019-04-19T08:43:31.667Z,64.6
2019-04-19T08:47:42.235Z,64.7
2019-04-19T08:52:36.631Z,64.9
2019-04-19T08:57:32.495Z,65.3
2019-04-19T09:02:57.691Z,65.4
2019-04-19T09:08:10.012Z,65.8
2019-04-19T09:13:22.050Z,65.8
2019-04-19T09:18:45.123Z,65.9
2019-04-19T09:23:04.558Z,65.9
2019-04-19T09:28:14.887Z,66.7
2019-04-19T09:32:38.412Z,66.6
2019-04-19T09:37:50.663Z,66.4
2019-04-19T09:42:53.735Z,66.9
2019-04-19T09:47:29.525Z,67.0
2019-04-19T09:52:59.588Z,67.4
2019-04-19T09:58:05.658Z,67.2
2019-04-19T10:02:48.788Z,67.4
2019-04-19T10:07:29.525Z,67.7
2019-04-19T10:12:29.686Z,67.8
2019-04-19T10:17:29.360Z,68.0
2019-04-19T10:22:29.035Z,67.9
2019-04-19T10:27:30.971Z,68.0
2019-04-19T10:32:29.180Z,68.7
2019-04-19T10:37:29.109Z,68.9
2019-04-19T10:42:29.823Z,68.8
2019-04-19T10:47:29.664Z,69.5
2019-04-19T10:52:31.087Z,69.5
2019-04-19T10:57:31.377Z,68.9
2019-04-19T11:02:30.159Z,70.0
2019-04-19T11:07:29.708Z,70.0
2019-04-19T11:12:29.361Z,69.9
2019-04-19T11:17:30.140Z,69.7
2019-04-19T11:22:29.718Z,69.8
2019-04-19T11:27:29.458Z,70.4
2019-04-19T11:32:30.228Z,70.4
2019-04-19T11:37:30.112Z,70.0
2019-04-19T11:42:29.462Z,70.3
2019-04-19T11:47:29.486Z,70.0
2019-04-19T11:52:28.461Z,70.2
2019-04-19T11:57:30.642Z,70.3
2019-04-19T12:02:30.582Z,69.6
2019-04-19T12:07:30.228Z,70.3
2019-04-19T12:12:30.628Z,70.6
2019-04-19T12:17:29.669Z,70.2
2019-04-19T12:22:28.680Z,70.2
2019-04-19T12:27:28.241Z,70.4
2019-04-19T12:32:30.069Z,70.9
2019-04-19T12:37:29.476Z,70.9
2019-04-19T12:42:29.120Z,70.7
2019-04-19T12:47:29.367Z,70.4
2019-04-19T12:52:31.104Z,70.7
2019-04-19T12:57:30.376Z,70.7
2019-04-19T13:02:29.530Z,70.4
2019-04-19T13:07:29.385Z,71.1
2019-04-19T13:12:29.118Z,71.4
2019-04-19T13:17:30.907Z,71.4
2019-04-19T13:22:28.786Z,69.9
2019-04-19T13:27:45.519Z,69.8
2019-04-19T13:32:29.689Z,69.8
2019-04-19T13:37:29.647Z,70.1
2019-04-19T13:42:29.048Z,70.9
2019-04-19T13:47:29.291Z,69.8
2019-04-19T13:52:28.751Z,69.9
2019-04-19T13:57:28.744Z,69.9
2019-04-19T14:02:29.835Z,70.2
2019-04-19T14:07:31.122Z,69.6
2019-04-19T14:12:29.527Z,68.8
2019-04-19T14:17:31.574Z,68.8
2019-04-19T14:22:29.923Z,68.4
2019-04-19T14:27:31.079Z,69.2
2019-04-19T14:32:29.866Z,67.3
2019-04-19T14:37:29.914Z,68.1
2019-04-19T14:42:31.037Z,68.7
2019-04-19T14:47:29.060Z,69.1
2019-04-19T14:52:30.063Z,69.1
2019-04-19T14:57:28.665Z,66.5
2019-04-19T15:02:29.546Z,65.1
2019-04-19T15:07:28.840Z,67.2
2019-04-19T15:12:29.334Z,67.9
2019-04-19T15:17:29.252Z,68.1
2019-04-19T15:22:28.940Z,61.9
2019-04-19T15:27:31.111Z,65.0
2019-04-19T15:32:28.948Z,62.8
2019-04-19T15:37:30.233Z,55.9
2019-04-19T15:42:29.669Z,57.7
2019-04-19T15:47:30.632Z,61.7
2019-04-19T15:52:28.676Z,60.7
2019-04-19T15:57:28.601Z,55.1
2019-04-19T16:02:29.730Z,53.8
2019-04-19T16:07:30.223Z,54.7
2019-04-19T16:12:29.763Z,54.4
2019-04-19T16:17:29.801Z,53.0
2019-04-19T16:22:30.472Z,53.5
2019-04-19T16:27:29.734Z,57.7
2019-04-19T16:32:29.128Z,56.6
2019-04-19T16:37:29.206Z,54.2
2019-04-19T16:42:29.834Z,55.7
2019-04-19T16:47:29.665Z,55.7
2019-04-19T16:52:29.317Z,55.1
2019-04-19T16:57:31.673Z,54.6
2019-04-19T17:02:29.432Z,54.7
2019-04-19T17:07:29.975Z,55.3
2019-04-19T17:12:28.992Z,56.5
2019-04-19T17:17:30.609Z,57.2
2019-04-19T17:22:28.789Z,57.8
2019-04-19T17:27:33.611Z,57.8
2019-04-19T17:32:30.177Z,58.8
2019-04-19T17:37:30.176Z,59.9
2019-04-19T17:42:29.001Z,60.8
2019-04-19T17:47:37.747Z,65.9
2019-04-19T17:52:33.356Z,66.0
2019-04-19T17:57:29.641Z,68.5
2019-04-19T18:02:31.282Z,70.5
2019-04-19T18:07:40.819Z,70.5
2019-04-19T18:12:29.274Z,70.9
2019-04-19T18:17:29.382Z,70.8
2019-04-19T18:22:53.330Z,70.8
2019-04-19T18:27:32.637Z,71.0
2019-04-19T18:32:28.420Z,70.9
2019-04-19T18:37:38.357Z,70.7
2019-04-19T18:42:29.167Z,70.6
2019-04-19T18:47:29.837Z,70.4
2019-04-19T18:52:49.122Z,70.2
2019-04-19T18:57:41.626Z,69.7
2019-04-19T19:02:30.591Z,69.4
2019-04-19T19:07:32.564Z,68.8
2019-04-19T19:12:29.006Z,68.4
2019-04-19T19:17:30.864Z,68.0
2019-04-19T19:22:54.636Z,67.9
2019-04-19T19:27:33.716Z,67.7
2019-04-19T19:32:27.966Z,67.6
2019-04-19T19:37:35.560Z,67.4
2019-04-19T19:43:11.447Z,67.2
2019-04-19T19:48:17.116Z,67.1
2019-04-19T19:53:07.316Z,66.8
2019-04-19T19:57:55.917Z,66.8
2019-04-19T20:02:55.925Z,66.4
2019-04-19T20:07:42.958Z,66.4
2019-04-19T20:12:37.219Z,66.3
2019-04-19T20:17:29.646Z,66.0
2019-04-19T20:22:41.304Z,66.0
2019-04-19T20:27:44.790Z,65.9
2019-04-19T20:32:28.799Z,65.8
2019-04-19T20:37:28.972Z,65.8
2019-04-19T20:43:08.900Z,65.9
2019-04-19T20:47:33.434Z,65.6
2019-04-19T20:52:45.246Z,65.5
2019-04-19T20:57:55.210Z,65.6
2019-04-19T21:02:38.515Z,65.5
2019-04-19T21:07:36.444Z,65.4
2019-04-19T21:12:33.019Z,65.5
2019-04-19T21:17:41.404Z,65.2
2019-04-19T21:22:36.583Z,65.0
2019-04-19T21:27:33.358Z,65.0
2019-04-19T21:32:34.162Z,64.9
2019-04-19T21:37:42.115Z,64.9
2019-04-19T21:42:33.668Z,64.8
2019-04-19T21:47:28.639Z,64.7
2019-04-19T21:52:29.607Z,64.6
2019-04-19T21:57:32.981Z,64.6
2019-04-19T22:02:41.634Z,64.6
2019-04-19T22:07:41.358Z,64.5
2019-04-19T22:12:28.855Z,64.4
2019-04-19T22:22:47.901Z,63.8
2019-04-19T22:27:47.925Z,64.2
2019-04-19T22:32:56.525Z,64.2
2019-04-19T22:37:48.121Z,64.1
2019-04-19T22:43:00.252Z,64.1
2019-04-19T22:47:53.034Z,64.1
2019-04-19T22:52:47.346Z,64.0
2019-04-19T22:57:56.214Z,63.9
2019-04-19T23:02:52.297Z,63.9
2019-04-19T23:07:53.594Z,63.8
2019-04-19T23:12:29.746Z,63.8
2019-04-19T23:17:39.518Z,63.8
2019-04-19T23:22:38.080Z,63.8
2019-04-19T23:27:48.400Z,63.6
2019-04-19T23:32:34.817Z,63.5
2019-04-19T23:37:28.716Z,63.5
2019-04-19T23:42:29.456Z,63.4
2019-04-19T23:47:41.664Z,63.4
2019-04-19T23:52:28.079Z,63.3
2019-04-19T23:57:44.226Z,63.3
